createdAt,value
2022-09-27T00:01:35.108Z,0.90
2022-09-27T00:04:36.806Z,1.25
2022-09-27T00:07:38.962Z,1.10
2022-09-27T00:10:40.752Z,1.23
2022-09-27T00:13:42.877Z,1.35
2022-09-27T00:16:45.231Z,1.30
2022-09-27T00:19:46.989Z,1.48
2022-09-27T00:22:49.793Z,1.48
2022-09-27T00:25:58.339Z,1.60
2022-09-27T00:29:00.013Z,1.20
2022-09-27T00:32:01.937Z,1.73
2022-09-27T00:35:04.194Z,1.55
2022-09-27T00:38:06.210Z,1.58
2022-09-27T00:41:14.742Z,1.70
2022-09-27T00:44:28.999Z,1.73
2022-09-27T00:47:34.409Z,1.50
2022-09-27T00:50:41.030Z,1.40
2022-09-27T00:53:51.546Z,1.35
2022-09-27T00:56:54.294Z,1.30
2022-09-27T01:00:09.704Z,1.42
2022-09-27T01:03:15.938Z,1.63
2022-09-27T01:06:20.829Z,2.25
2022-09-27T01:09:24.022Z,1.63
2022-09-27T01:12:37.712Z,1.40
2022-09-27T01:19:27.740Z,1.70
2022-09-27T01:22:59.927Z,1.13
2022-09-27T01:26:29.173Z,1.40
2022-09-27T01:29:33.936Z,1.50
2022-09-27T01:32:53.869Z,1.10
2022-09-27T01:36:25.944Z,1.00
2022-09-27T01:39:41.106Z,0.90
2022-09-27T01:43:14.456Z,0.70
2022-09-27T01:46:40.314Z,0.75
2022-09-27T01:50:04.917Z,0.90
2022-09-27T01:53:17.294Z,0.80
2022-09-27T01:56:25.252Z,0.60
2022-09-27T01:59:49.753Z,0.70
2022-09-27T02:03:04.893Z,0.70
2022-09-27T02:06:14.666Z,0.90
2022-09-27T02:09:33.435Z,0.70
2022-09-27T02:12:42.785Z,0.90
2022-09-27T02:16:08.734Z,0.90
2022-09-27T02:19:16.392Z,0.88
2022-09-27T02:22:44.268Z,1.02
2022-09-27T02:25:57.562Z,0.73
2022-09-27T02:29:18.741Z,0.60
2022-09-27T02:32:20.539Z,0.70
2022-09-27T02:35:34.088Z,0.50
2022-09-27T02:38:35.848Z,0.85
2022-09-27T02:41:37.622Z,0.80
2022-09-27T02:44:40.864Z,1.00
2022-09-27T02:48:13.576Z,1.00
2022-09-27T02:51:25.194Z,0.80
2022-09-27T02:54:59.547Z,1.33
2022-09-27T02:58:25.088Z,1.30
2022-09-27T03:01:49.235Z,1.00
2022-09-27T03:05:05.726Z,1.17
2022-09-27T03:08:08.544Z,1.10
2022-09-27T03:11:10.553Z,1.40
2022-09-27T03:14:12.366Z,0.95
2022-09-27T03:17:14.191Z,1.20
2022-09-27T03:20:16.358Z,0.77
2022-09-27T03:23:18.361Z,0.98
2022-09-27T03:26:20.269Z,0.98
2022-09-27T03:29:22.056Z,0.70
2022-09-27T03:32:23.750Z,0.75
2022-09-27T03:35:26.184Z,0.75
2022-09-27T03:38:28.089Z,0.90
2022-09-27T03:41:30.144Z,0.90
2022-09-27T03:44:32.920Z,0.70
2022-09-27T03:47:34.859Z,0.60
2022-09-27T03:50:37.034Z,0.70
2022-09-27T03:53:39.035Z,1.05
2022-09-27T03:56:40.764Z,0.70
2022-09-27T03:59:42.448Z,0.60
2022-09-27T04:02:44.407Z,0.80
2022-09-27T04:05:46.362Z,0.90
2022-09-27T04:08:48.346Z,0.90
2022-09-27T04:11:50.805Z,0.70
2022-09-27T04:14:52.505Z,0.82
2022-09-27T04:17:54.476Z,0.80
2022-09-27T04:20:56.485Z,0.80
2022-09-27T04:23:58.279Z,0.60
2022-09-27T04:27:00.102Z,0.60
2022-09-27T04:30:02.222Z,0.60
2022-09-27T04:33:04.110Z,0.60
2022-09-27T04:36:24.701Z,1.00
2022-09-27T04:39:26.527Z,0.85
2022-09-27T04:42:28.789Z,0.80
2022-09-27T04:45:31.394Z,0.82
2022-09-27T04:48:33.485Z,1.03
2022-09-27T04:51:35.806Z,0.82
2022-09-27T04:54:38.141Z,0.70
2022-09-27T04:57:39.854Z,0.82
2022-09-27T05:00:43.269Z,0.77
2022-09-27T05:06:46.744Z,0.60
2022-09-27T05:09:49.110Z,0.90
2022-09-27T05:12:50.987Z,1.00
2022-09-27T05:15:52.884Z,0.77
2022-09-27T05:18:54.717Z,1.10
2022-09-27T05:21:56.752Z,0.90
2022-09-27T05:24:58.421Z,0.80
2022-09-27T05:28:00.559Z,0.60
2022-09-27T05:31:03.276Z,0.90
2022-09-27T05:34:05.102Z,0.88
2022-09-27T05:37:07.228Z,0.80
2022-09-27T05:40:29.360Z,0.90
2022-09-27T05:43:31.779Z,1.00
2022-09-27T05:46:33.761Z,0.75
2022-09-27T05:49:35.622Z,1.38
2022-09-27T05:52:37.308Z,0.80
2022-09-27T05:55:39.092Z,0.90
2022-09-27T05:58:41.013Z,0.90
2022-09-27T06:01:43.036Z,0.80
2022-09-27T06:04:44.820Z,0.60
2022-09-27T06:07:51.016Z,0.98
2022-09-27T06:11:04.329Z,0.60
2022-09-27T06:14:06.136Z,0.70
2022-09-27T06:17:08.118Z,0.82
2022-09-27T06:20:10.751Z,0.82
2022-09-27T06:23:20.278Z,0.95
2022-09-27T06:26:22.231Z,0.68
2022-09-27T06:29:24.087Z,0.90
2022-09-27T06:32:26.023Z,0.75
2022-09-27T06:35:29.221Z,0.82
2022-09-27T06:38:31.225Z,1.00
2022-09-27T06:41:33.448Z,1.20
2022-09-27T06:44:35.171Z,1.00
2022-09-27T06:47:38.033Z,0.90
2022-09-27T06:50:44.135Z,0.93
2022-09-27T06:53:45.967Z,0.95
2022-09-27T06:56:48.228Z,1.25
2022-09-27T07:00:08.688Z,1.15
2022-09-27T07:03:11.519Z,1.13
2022-09-27T07:06:22.906Z,1.00
2022-09-27T07:09:25.541Z,1.20
2022-09-27T07:12:27.643Z,1.07
2022-09-27T07:15:29.609Z,1.35
2022-09-27T07:18:31.523Z,1.30
2022-09-27T07:21:33.631Z,9.77
2022-09-27T07:24:35.530Z,1.38
2022-09-27T07:27:38.704Z,1.20
2022-09-27T07:30:41.688Z,1.48
2022-09-27T07:33:43.814Z,1.45
2022-09-27T07:36:45.645Z,5.40
2022-09-27T07:39:47.365Z,1.42
2022-09-27T07:42:57.797Z,1.60
2022-09-27T07:46:02.470Z,1.40
2022-09-27T07:49:04.363Z,1.42
2022-09-27T07:52:06.195Z,1.63
2022-09-27T07:55:10.771Z,2.17
2022-09-27T07:58:18.071Z,2.10
2022-09-27T08:01:20.033Z,2.03
2022-09-27T08:04:43.690Z,2.70
2022-09-27T08:11:19.071Z,6.55
2022-09-27T08:14:22.503Z,3.75
2022-09-27T08:20:28.333Z,2.83
2022-09-27T08:23:31.135Z,3.00
2022-09-27T08:26:33.082Z,2.80
2022-09-27T08:29:35.528Z,3.40
2022-09-27T08:32:38.301Z,3.88
2022-09-27T08:35:40.194Z,3.80
2022-09-27T08:38:42.166Z,4.00
2022-09-27T08:41:55.657Z,4.97
2022-09-27T08:45:02.382Z,4.50
2022-09-27T08:48:10.368Z,4.95
2022-09-27T08:51:15.978Z,4.90
2022-09-27T08:54:29.254Z,4.38
2022-09-27T08:57:31.023Z,4.95
2022-09-27T09:00:33.490Z,5.18
2022-09-27T09:03:39.376Z,6.13
2022-09-27T09:07:01.534Z,5.10
2022-09-27T09:10:50.115Z,4.43
2022-09-27T09:14:11.438Z,4.45
2022-09-27T09:17:37.478Z,4.07
2022-09-27T09:21:13.791Z,4.28
2022-09-27T09:24:29.279Z,4.32
2022-09-27T09:28:02.282Z,4.00
2022-09-27T09:31:16.800Z,3.80
2022-09-27T09:34:28.438Z,3.70
2022-09-27T09:37:53.749Z,3.58
2022-09-27T09:41:22.517Z,3.50
2022-09-27T09:44:33.391Z,5.10
2022-09-27T09:47:44.266Z,3.58
2022-09-27T09:50:49.544Z,2.60
2022-09-27T09:54:19.787Z,2.75
2022-09-27T09:57:53.713Z,2.65
2022-09-27T10:01:00.683Z,2.10
2022-09-27T10:04:03.478Z,2.13
2022-09-27T10:07:05.222Z,2.38
2022-09-27T10:10:22.606Z,2.03
2022-09-27T10:13:24.445Z,1.73
2022-09-27T10:16:36.021Z,1.70
2022-09-27T10:19:53.530Z,1.73
2022-09-27T10:23:03.777Z,1.98
2022-09-27T10:26:06.174Z,1.90
2022-09-27T10:29:31.523Z,1.77
2022-09-27T10:32:37.980Z,1.50
2022-09-27T10:35:43.694Z,1.33
2022-09-27T10:38:54.818Z,1.10
2022-09-27T10:41:57.192Z,1.15
2022-09-27T10:44:59.428Z,1.10
2022-09-27T10:48:02.912Z,1.30
2022-09-27T10:54:32.383Z,1.10
2022-09-27T10:57:34.355Z,1.10
2022-09-27T11:00:37.388Z,1.80
2022-09-27T11:03:51.699Z,1.00
2022-09-27T11:07:06.973Z,3.63
2022-09-27T11:10:36.296Z,1.38
2022-09-27T11:13:39.506Z,1.20
2022-09-27T11:16:41.822Z,1.35
2022-09-27T11:19:43.836Z,6.20
2022-09-27T11:23:23.312Z,1.10
2022-09-27T11:26:41.661Z,1.10
2022-09-27T11:29:45.281Z,1.20
2022-09-27T11:32:49.788Z,0.90
2022-09-27T11:35:51.776Z,0.90
2022-09-27T11:39:11.845Z,0.85
2022-09-27T11:42:46.348Z,0.85
2022-09-27T11:46:26.633Z,1.10
2022-09-27T11:50:03.781Z,0.88
2022-09-27T11:53:05.711Z,1.00
2022-09-27T11:56:53.305Z,1.00
2022-09-27T12:00:18.018Z,1.67
2022-09-27T12:03:28.638Z,1.48
2022-09-27T12:06:35.085Z,1.20
2022-09-27T12:09:41.825Z,1.48
2022-09-27T12:12:46.519Z,1.60
2022-09-27T12:15:48.770Z,1.60
2022-09-27T12:19:13.034Z,1.52
2022-09-27T12:22:25.875Z,1.60
2022-09-27T12:25:40.396Z,1.83
2022-09-27T12:28:59.734Z,1.90
2022-09-27T12:32:22.449Z,2.42
2022-09-27T12:35:35.579Z,2.35
2022-09-27T12:38:49.767Z,2.00
2022-09-27T12:42:05.978Z,1.67
2022-09-27T12:45:16.035Z,1.83
2022-09-27T12:48:33.329Z,1.48
2022-09-27T12:51:44.329Z,1.70
2022-09-27T12:55:18.510Z,1.75
2022-09-27T12:58:40.495Z,1.63
2022-09-27T13:01:51.303Z,1.70
2022-09-27T13:05:28.408Z,1.98
2022-09-27T13:08:35.356Z,1.35
2022-09-27T13:11:49.430Z,0.80
2022-09-27T13:14:51.037Z,1.60
2022-09-27T13:18:05.505Z,1.92
2022-09-27T13:21:09.533Z,1.10
2022-09-27T13:24:42.673Z,1.00
2022-09-27T13:27:47.067Z,1.00
2022-09-27T13:30:51.806Z,0.80
2022-09-27T13:33:54.885Z,1.23
2022-09-27T13:36:57.461Z,1.50
2022-09-27T13:40:11.477Z,1.27
2022-09-27T13:43:13.350Z,1.00
2022-09-27T13:46:22.120Z,1.50
2022-09-27T13:49:26.967Z,1.25
2022-09-27T13:52:45.041Z,1.30
2022-09-27T13:55:49.156Z,1.05
2022-09-27T13:58:59.257Z,0.90
2022-09-27T14:02:36.606Z,1.20
2022-09-27T14:09:46.456Z,1.00
2022-09-27T14:12:49.094Z,0.85
2022-09-27T14:15:52.278Z,1.47
2022-09-27T14:19:29.131Z,0.95
2022-09-27T14:22:43.537Z,1.20
2022-09-27T14:25:56.652Z,1.23
2022-09-27T14:28:58.445Z,1.67
2022-09-27T14:32:47.916Z,3.22
2022-09-27T14:36:23.663Z,3.90
2022-09-27T14:39:45.458Z,1.77
2022-09-27T14:42:58.822Z,1.20
2022-09-27T14:46:27.599Z,1.20
2022-09-27T14:49:30.264Z,1.40
2022-09-27T14:52:47.479Z,1.37
2022-09-27T14:55:49.361Z,1.10
2022-09-27T14:59:19.408Z,1.30
2022-09-27T15:02:26.033Z,1.50
2022-09-27T15:05:32.215Z,1.23
2022-09-27T15:12:00.829Z,1.20
2022-09-27T15:15:18.514Z,1.48
2022-09-27T15:18:39.854Z,1.40
2022-09-27T15:21:50.922Z,1.90
2022-09-27T15:24:54.639Z,1.30
2022-09-27T15:27:56.579Z,1.27
2022-09-27T15:30:58.897Z,1.55
2022-09-27T15:34:10.786Z,2.08
2022-09-27T15:37:39.164Z,2.30
2022-09-27T15:40:49.889Z,1.63
2022-09-27T15:43:53.259Z,1.80
2022-09-27T15:46:57.681Z,1.63
2022-09-27T15:50:30.502Z,2.45
2022-09-27T15:53:50.750Z,2.72
2022-09-27T16:07:34.186Z,1.60
2022-09-27T16:11:49.642Z,3.53
2022-09-27T16:19:03.991Z,1.63
2022-09-27T16:53:00.363Z,2.00
2022-09-27T16:56:05.392Z,2.80
2022-09-27T16:59:07.862Z,3.13
2022-09-27T17:05:45.856Z,2.25
2022-09-27T17:08:47.815Z,2.28
2022-09-27T17:15:09.872Z,2.53
2022-09-27T17:18:12.151Z,2.15
2022-09-27T17:21:23.279Z,2.03
2022-09-27T17:24:25.246Z,1.70
2022-09-27T17:27:28.903Z,1.75
2022-09-27T17:30:35.625Z,1.90
2022-09-27T17:33:48.666Z,3.40
2022-09-27T17:36:56.459Z,5.43
2022-09-27T17:39:58.905Z,7.38
2022-09-27T17:43:04.430Z,4.70
2022-09-27T17:47:29.363Z,3.67
2022-09-27T17:50:46.702Z,2.80
2022-09-27T17:53:49.370Z,3.35
2022-09-27T17:56:53.997Z,3.40
2022-09-27T17:59:57.982Z,3.47
2022-09-27T18:06:33.802Z,2.47
2022-09-27T18:09:37.208Z,3.00
2022-09-27T18:15:41.237Z,3.95
2022-09-27T18:18:47.209Z,4.05
2022-09-27T18:21:55.509Z,2.92
2022-09-27T18:24:57.322Z,2.45
2022-09-27T18:31:43.729Z,2.35
2022-09-27T18:34:49.926Z,3.05
2022-09-27T18:37:51.885Z,3.03
2022-09-27T18:40:57.732Z,3.13
2022-09-27T18:44:01.922Z,2.97
2022-09-27T18:50:22.262Z,1.90
2022-09-27T18:53:33.144Z,2.17
2022-09-27T18:56:52.330Z,1.98
2022-09-27T19:00:05.322Z,1.70
2022-09-27T19:03:07.083Z,1.83
2022-09-27T19:06:28.497Z,1.77
2022-09-27T19:09:31.304Z,2.50
2022-09-27T19:12:34.930Z,2.40
2022-09-27T19:15:37.589Z,1.55
2022-09-27T19:18:40.057Z,1.92
2022-09-27T19:21:42.343Z,1.43
2022-09-27T19:24:51.071Z,1.67
2022-09-27T19:31:26.836Z,1.30
2022-09-27T19:34:50.441Z,1.20
2022-09-27T19:37:52.699Z,1.35
2022-09-27T19:40:55.103Z,1.35
2022-09-27T19:50:07.735Z,0.73
2022-09-27T19:53:22.335Z,0.80
2022-09-27T19:56:34.309Z,0.80
2022-09-27T20:03:01.392Z,1.08
2022-09-27T20:09:13.554Z,1.00
2022-09-27T20:12:23.645Z,0.80
2022-09-27T20:15:25.397Z,0.80
2022-09-27T20:18:42.398Z,1.10
2022-09-27T20:21:59.688Z,0.85
2022-09-27T20:25:05.941Z,0.70
2022-09-27T20:28:30.051Z,1.13
2022-09-27T20:32:03.239Z,0.60
2022-09-27T20:38:29.460Z,1.10
2022-09-27T20:41:33.586Z,1.10
2022-09-27T20:44:35.510Z,0.90
2022-09-27T20:47:39.245Z,1.60
2022-09-27T20:50:41.598Z,1.13
2022-09-27T20:53:55.669Z,1.10
2022-09-27T20:56:57.482Z,1.10
2022-09-27T20:59:59.432Z,2.10
2022-09-27T21:03:01.121Z,1.60
2022-09-27T21:06:04.606Z,1.10
2022-09-27T21:09:07.651Z,1.20
2022-09-27T21:12:09.451Z,1.10
2022-09-27T21:15:11.268Z,1.10
2022-09-27T21:18:14.328Z,0.75
2022-09-27T21:21:20.794Z,1.17
2022-09-27T21:24:22.943Z,1.02
2022-09-27T21:27:24.811Z,0.75
2022-09-27T21:30:27.681Z,0.90
2022-09-27T21:33:30.087Z,0.93
2022-09-27T21:36:37.703Z,1.05
2022-09-27T21:39:50.776Z,1.42
2022-09-27T21:42:58.585Z,1.15
2022-09-27T21:46:06.189Z,1.25
2022-09-27T21:49:08.019Z,0.95
2022-09-27T21:52:12.942Z,0.90
2022-09-27T21:55:14.994Z,1.13
2022-09-27T21:58:26.406Z,1.60
2022-09-27T22:01:30.410Z,1.30
2022-09-27T22:04:32.076Z,1.33
2022-09-27T22:07:33.826Z,1.25
2022-09-27T22:10:35.562Z,1.63
2022-09-27T22:13:37.463Z,1.00
2022-09-27T22:16:39.416Z,1.20
2022-09-27T22:19:41.365Z,1.00
2022-09-27T22:22:43.125Z,0.93
2022-09-27T22:25:45.205Z,1.30
2022-09-27T22:28:47.431Z,1.25
2022-09-27T22:31:52.675Z,1.00
2022-09-27T22:34:54.975Z,0.80
2022-09-27T22:41:20.844Z,1.10
2022-09-27T22:44:22.857Z,1.00
2022-09-27T22:47:24.634Z,0.90
2022-09-27T22:50:27.319Z,0.73
2022-09-27T22:53:30.468Z,1.35
2022-09-27T22:56:40.975Z,0.90
2022-09-27T22:59:42.687Z,1.00
2022-09-27T23:02:44.905Z,1.00
2022-09-27T23:05:46.660Z,1.00
2022-09-27T23:08:48.492Z,0.90
2022-09-27T23:11:59.684Z,1.00
2022-09-27T23:15:01.671Z,0.85
2022-09-27T23:18:18.499Z,1.05
2022-09-27T23:21:35.894Z,0.80
2022-09-27T23:24:37.560Z,0.90
2022-09-27T23:27:42.177Z,1.10
2022-09-27T23:30:43.864Z,0.75
2022-09-27T23:33:48.557Z,1.77
2022-09-27T23:37:00.392Z,1.08
2022-09-27T23:40:02.776Z,1.20
2022-09-27T23:43:04.536Z,1.30
2022-09-27T23:46:07.240Z,1.50
2022-09-27T23:49:09.454Z,1.33
2022-09-27T23:52:11.190Z,1.83
2022-09-27T23:55:12.926Z,1.98
2022-09-27T23:58:14.867Z,2.25
